sensor_id;sensor_type;location;lat;lon;timestamp;temperature;humidity
9437;DHT22;4757;59.334;18.034;2022-09-28T00:00:02;13.50;99.90
9437;DHT22;4757;59.334;18.034;2022-09-28T00:02:30;13.50;99.90
9437;DHT22;4757;59.334;18.034;2022-09-28T00:04:57;13.40;99.90
9437;DHT22;4757;59.334;18.034;2022-09-28T00:07:24;13.50;99.90
9437;DHT22;4757;59.334;18.034;2022-09-28T00:09:51;13.50;99.90
9437;DHT22;4757;59.334;18.034;2022-09-28T00:12:18;13.50;99.90
9437;DHT22;4757;59.334;18.034;2022-09-28T00:14:45;13.50;99.90
9437;DHT22;4757;59.334;18.034;2022-09-28T00:17:12;13.50;99.90
9437;DHT22;4757;59.334;18.034;2022-09-28T00:19:39;13.50;99.90
9437;DHT22;4757;59.334;18.034;2022-09-28T00:22:06;13.50;99.90
9437;DHT22;4757;59.334;18.034;2022-09-28T00:24:34;13.60;99.90
9437;DHT22;4757;59.334;18.034;2022-09-28T00:27:01;13.60;99.90
9437;DHT22;4757;59.334;18.034;2022-09-28T00:29:36;13.50;99.90
9437;DHT22;4757;59.334;18.034;2022-09-28T00:32:09;13.50;99.90
9437;DHT22;4757;59.334;18.034;2022-09-28T00:34:40;13.50;99.90
9437;DHT22;4757;59.334;18.034;2022-09-28T00:37:09;13.50;99.90
9437;DHT22;4757;59.334;18.034;2022-09-28T00:39:37;13.40;99.90
9437;DHT22;4757;59.334;18.034;2022-09-28T00:42:18;13.50;99.90
9437;DHT22;4757;59.334;18.034;2022-09-28T00:44:57;13.50;99.90
9437;DHT22;4757;59.334;18.034;2022-09-28T00:47:48;13.40;99.90
9437;DHT22;4757;59.334;18.034;2022-09-28T00:53:07;13.50;99.90
9437;DHT22;4757;59.334;18.034;2022-09-28T00:58:09;13.40;99.90
9437;DHT22;4757;59.334;18.034;2022-09-28T01:00:38;13.40;99.90
9437;DHT22;4757;59.334;18.034;2022-09-28T01:03:09;13.40;99.90
9437;DHT22;4757;59.334;18.034;2022-09-28T01:05:38;13.40;99.90
9437;DHT22;4757;59.334;18.034;2022-09-28T01:08:09;13.40;99.90
9437;DHT22;4757;59.334;18.034;2022-09-28T01:10:38;13.40;99.90
9437;DHT22;4757;59.334;18.034;2022-09-28T01:13:06;13.60;99.90
9437;DHT22;4757;59.334;18.034;2022-09-28T01:21:24;13.50;99.90
9437;DHT22;4757;59.334;18.034;2022-09-28T01:26:46;13.50;99.90
9437;DHT22;4757;59.334;18.034;2022-09-28T01:32:31;13.40;99.90
9437;DHT22;4757;59.334;18.034;2022-09-28T01:35:23;13.50;99.90
9437;DHT22;4757;59.334;18.034;2022-09-28T01:37:59;13.50;99.90
9437;DHT22;4757;59.334;18.034;2022-09-28T01:40:29;13.50;99.90
9437;DHT22;4757;59.334;18.034;2022-09-28T01:43:02;13.40;99.90
9437;DHT22;4757;59.334;18.034;2022-09-28T01:45:34;13.40;99.90
9437;DHT22;4757;59.334;18.034;2022-09-28T01:48:05;13.40;99.90
9437;DHT22;4757;59.334;18.034;2022-09-28T01:50:36;13.40;99.90
9437;DHT22;4757;59.334;18.034;2022-09-28T01:55:44;13.40;99.90
9437;DHT22;4757;59.334;18.034;2022-09-28T01:58:21;13.40;99.90
9437;DHT22;4757;59.334;18.034;2022-09-28T02:00:56;13.40;99.90
9437;DHT22;4757;59.334;18.034;2022-09-28T02:03:40;13.40;99.90
9437;DHT22;4757;59.334;18.034;2022-09-28T02:06:24;13.30;99.90
9437;DHT22;4757;59.334;18.034;2022-09-28T02:08:58;13.40;99.90
9437;DHT22;4757;59.334;18.034;2022-09-28T02:11:26;13.30;99.90
9437;DHT22;4757;59.334;18.034;2022-09-28T02:14:09;13.40;99.90
9437;DHT22;4757;59.334;18.034;2022-09-28T02:16:47;13.30;99.90
9437;DHT22;4757;59.334;18.034;2022-09-28T02:19:22;13.40;99.90
9437;DHT22;4757;59.334;18.034;2022-09-28T02:21:54;13.40;99.90
9437;DHT22;4757;59.334;18.034;2022-09-28T02:24:45;13.40;99.90
9437;DHT22;4757;59.334;18.034;2022-09-28T02:30:00;13.30;99.90
9437;DHT22;4757;59.334;18.034;2022-09-28T02:32:31;13.30;99.90
9437;DHT22;4757;59.334;18.034;2022-09-28T02:34:59;13.30;99.90
9437;DHT22;4757;59.334;18.034;2022-09-28T02:37:28;13.30;99.90
9437;DHT22;4757;59.334;18.034;2022-09-28T02:39:55;13.30;99.90
9437;DHT22;4757;59.334;18.034;2022-09-28T02:42:35;13.20;99.90
9437;DHT22;4757;59.334;18.034;2022-09-28T02:48:12;13.20;99.90
9437;DHT22;4757;59.334;18.034;2022-09-28T02:56:57;13.20;99.90
9437;DHT22;4757;59.334;18.034;2022-09-28T03:05:15;13.10;99.90
9437;DHT22;4757;59.334;18.034;2022-09-28T03:08:41;13.10;99.90
9437;DHT22;4757;59.334;18.034;2022-09-28T03:10:55;13.20;99.90
9437;DHT22;4757;59.334;18.034;2022-09-28T03:13:24;13.10;99.90
9437;DHT22;4757;59.334;18.034;2022-09-28T03:16:14;13.00;99.90
9437;DHT22;4757;59.334;18.034;2022-09-28T03:18:42;13.00;99.90
9437;DHT22;4757;59.334;18.034;2022-09-28T03:21:13;13.00;99.90
9437;DHT22;4757;59.334;18.034;2022-09-28T03:23:40;13.00;99.90
9437;DHT22;4757;59.334;18.034;2022-09-28T03:26:10;13.00;99.90
9437;DHT22;4757;59.334;18.034;2022-09-28T03:28:39;12.90;99.90
9437;DHT22;4757;59.334;18.034;2022-09-28T03:31:06;12.90;99.90
9437;DHT22;4757;59.334;18.034;2022-09-28T03:33:33;12.90;99.90
9437;DHT22;4757;59.334;18.034;2022-09-28T03:36:00;12.90;99.90
9437;DHT22;4757;59.334;18.034;2022-09-28T03:38:28;12.80;99.90
9437;DHT22;4757;59.334;18.034;2022-09-28T03:40:58;12.80;99.90
9437;DHT22;4757;59.334;18.034;2022-09-28T03:43:26;12.80;99.90
9437;DHT22;4757;59.334;18.034;2022-09-28T03:45:55;12.80;99.90
9437;DHT22;4757;59.334;18.034;2022-09-28T03:48:25;12.70;99.90
9437;DHT22;4757;59.334;18.034;2022-09-28T03:50:59;12.70;99.90
9437;DHT22;4757;59.334;18.034;2022-09-28T03:53:27;12.80;99.90
9437;DHT22;4757;59.334;18.034;2022-09-28T03:56:00;12.70;99.90
9437;DHT22;4757;59.334;18.034;2022-09-28T03:58:28;12.70;99.90
9437;DHT22;4757;59.334;18.034;2022-09-28T04:01:03;12.70;99.90
9437;DHT22;4757;59.334;18.034;2022-09-28T04:03:31;12.70;99.90
9437;DHT22;4757;59.334;18.034;2022-09-28T04:05:59;12.70;99.90
9437;DHT22;4757;59.334;18.034;2022-09-28T04:08:26;12.70;99.90
9437;DHT22;4757;59.334;18.034;2022-09-28T04:10:57;12.60;99.90
9437;DHT22;4757;59.334;18.034;2022-09-28T04:13:27;12.60;99.90
9437;DHT22;4757;59.334;18.034;2022-09-28T04:15:55;12.60;99.90
9437;DHT22;4757;59.334;18.034;2022-09-28T04:18:23;12.70;99.90
9437;DHT22;4757;59.334;18.034;2022-09-28T04:23:37;12.70;99.90
9437;DHT22;4757;59.334;18.034;2022-09-28T04:26:06;12.70;99.90
9437;DHT22;4757;59.334;18.034;2022-09-28T04:28:33;12.80;99.90
9437;DHT22;4757;59.334;18.034;2022-09-28T04:31:21;12.80;99.90
9437;DHT22;4757;59.334;18.034;2022-09-28T04:33:48;12.80;99.90
9437;DHT22;4757;59.334;18.034;2022-09-28T04:36:15;12.80;99.90
9437;DHT22;4757;59.334;18.034;2022-09-28T04:38:43;12.80;99.90
9437;DHT22;4757;59.334;18.034;2022-09-28T04:41:19;12.80;99.90
9437;DHT22;4757;59.334;18.034;2022-09-28T04:43:48;12.80;99.90
9437;DHT22;4757;59.334;18.034;2022-09-28T04:46:16;12.80;99.90
9437;DHT22;4757;59.334;18.034;2022-09-28T04:48:43;12.90;99.90
9437;DHT22;4757;59.334;18.034;2022-09-28T04:51:10;12.80;99.90
9437;DHT22;4757;59.334;18.034;2022-09-28T04:53:37;12.80;99.90
9437;DHT22;4757;59.334;18.034;2022-09-28T04:56:08;12.80;99.90
9437;DHT22;4757;59.334;18.034;2022-09-28T04:58:36;12.80;99.90
9437;DHT22;4757;59.334;18.034;2022-09-28T05:01:06;12.80;99.90
9437;DHT22;4757;59.334;18.034;2022-09-28T05:03:34;12.80;99.90
9437;DHT22;4757;59.334;18.034;2022-09-28T05:06:01;12.90;99.90
9437;DHT22;4757;59.334;18.034;2022-09-28T05:08:29;12.90;99.90
9437;DHT22;4757;59.334;18.034;2022-09-28T05:10:58;12.90;99.90
9437;DHT22;4757;59.334;18.034;2022-09-28T05:13:26;13.00;99.90
9437;DHT22;4757;59.334;18.034;2022-09-28T05:15:56;12.90;99.90
9437;DHT22;4757;59.334;18.034;2022-09-28T05:18:28;12.90;99.90
9437;DHT22;4757;59.334;18.034;2022-09-28T05:20:56;12.90;99.90
9437;DHT22;4757;59.334;18.034;2022-09-28T05:23:23;12.90;99.90
9437;DHT22;4757;59.334;18.034;2022-09-28T05:25:50;12.90;99.90
9437;DHT22;4757;59.334;18.034;2022-09-28T05:28:26;12.90;99.90
9437;DHT22;4757;59.334;18.034;2022-09-28T05:31:00;12.90;99.90
9437;DHT22;4757;59.334;18.034;2022-09-28T05:33:29;12.90;99.90
9437;DHT22;4757;59.334;18.034;2022-09-28T05:35:57;13.00;99.90
9437;DHT22;4757;59.334;18.034;2022-09-28T05:38:27;13.00;99.90
9437;DHT22;4757;59.334;18.034;2022-09-28T05:40:55;13.00;99.90
9437;DHT22;4757;59.334;18.034;2022-09-28T05:43:23;12.90;99.90
9437;DHT22;4757;59.334;18.034;2022-09-28T05:45:50;13.00;99.90
9437;DHT22;4757;59.334;18.034;2022-09-28T05:48:24;13.00;99.90
9437;DHT22;4757;59.334;18.034;2022-09-28T05:50:54;13.00;99.90
9437;DHT22;4757;59.334;18.034;2022-09-28T05:53:21;13.00;99.90
9437;DHT22;4757;59.334;18.034;2022-09-28T05:55:48;13.00;99.90
9437;DHT22;4757;59.334;18.034;2022-09-28T05:58:16;13.10;99.90
9437;DHT22;4757;59.334;18.034;2022-09-28T06:00:43;13.00;99.90
9437;DHT22;4757;59.334;18.034;2022-09-28T06:03:12;13.00;99.90
9437;DHT22;4757;59.334;18.034;2022-09-28T06:05:40;13.10;99.90
9437;DHT22;4757;59.334;18.034;2022-09-28T06:08:08;13.10;99.90
9437;DHT22;4757;59.334;18.034;2022-09-28T06:10:36;13.10;99.90
9437;DHT22;4757;59.334;18.034;2022-09-28T06:13:04;13.20;99.90
9437;DHT22;4757;59.334;18.034;2022-09-28T06:15:34;13.20;99.90
9437;DHT22;4757;59.334;18.034;2022-09-28T06:18:04;13.20;99.90
9437;DHT22;4757;59.334;18.034;2022-09-28T06:20:36;13.20;99.90
9437;DHT22;4757;59.334;18.034;2022-09-28T06:23:04;13.20;99.90
9437;DHT22;4757;59.334;18.034;2022-09-28T06:25:31;13.10;99.90
9437;DHT22;4757;59.334;18.034;2022-09-28T06:28:00;13.00;99.90
9437;DHT22;4757;59.334;18.034;2022-09-28T06:30:28;13.00;99.90
9437;DHT22;4757;59.334;18.034;2022-09-28T06:32:57;13.00;99.90
9437;DHT22;4757;59.334;18.034;2022-09-28T06:35:27;13.00;99.90
9437;DHT22;4757;59.334;18.034;2022-09-28T06:37:55;13.00;99.90
9437;DHT22;4757;59.334;18.034;2022-09-28T06:40:23;13.00;99.90
9437;DHT22;4757;59.334;18.034;2022-09-28T06:43:10;13.10;99.90
9437;DHT22;4757;59.334;18.034;2022-09-28T06:45:38;13.20;99.90
9437;DHT22;4757;59.334;18.034;2022-09-28T06:48:05;13.20;99.90
9437;DHT22;4757;59.334;18.034;2022-09-28T06:50:40;13.20;99.90
9437;DHT22;4757;59.334;18.034;2022-09-28T06:53:18;13.30;99.90
9437;DHT22;4757;59.334;18.034;2022-09-28T06:55:46;13.60;99.90
9437;DHT22;4757;59.334;18.034;2022-09-28T06:58:17;13.60;99.90
9437;DHT22;4757;59.334;18.034;2022-09-28T07:00:47;13.70;99.90
9437;DHT22;4757;59.334;18.034;2022-09-28T07:03:19;13.90;99.90
9437;DHT22;4757;59.334;18.034;2022-09-28T07:05:51;13.80;99.90
9437;DHT22;4757;59.334;18.034;2022-09-28T07:08:21;13.80;99.90
9437;DHT22;4757;59.334;18.034;2022-09-28T07:10:52;13.80;99.90
9437;DHT22;4757;59.334;18.034;2022-09-28T07:13:24;13.60;99.90
9437;DHT22;4757;59.334;18.034;2022-09-28T07:16:11;13.70;99.90
9437;DHT22;4757;59.334;18.034;2022-09-28T07:18:39;13.70;99.90
9437;DHT22;4757;59.334;18.034;2022-09-28T07:21:06;13.80;99.90
9437;DHT22;4757;59.334;18.034;2022-09-28T07:23:36;14.10;99.90
9437;DHT22;4757;59.334;18.034;2022-09-28T07:26:17;14.80;99.90
9437;DHT22;4757;59.334;18.034;2022-09-28T07:28:49;14.80;99.90
9437;DHT22;4757;59.334;18.034;2022-09-28T07:31:17;14.80;99.90
9437;DHT22;4757;59.334;18.034;2022-09-28T07:33:48;14.60;99.90
9437;DHT22;4757;59.334;18.034;2022-09-28T07:36:17;14.70;99.90
9437;DHT22;4757;59.334;18.034;2022-09-28T07:38:46;14.90;99.90
9437;DHT22;4757;59.334;18.034;2022-09-28T07:41:14;14.90;99.90
9437;DHT22;4757;59.334;18.034;2022-09-28T07:43:43;15.00;99.90
9437;DHT22;4757;59.334;18.034;2022-09-28T07:46:10;14.80;99.90
9437;DHT22;4757;59.334;18.034;2022-09-28T07:48:39;14.80;99.90
9437;DHT22;4757;59.334;18.034;2022-09-28T07:51:07;14.80;99.90
9437;DHT22;4757;59.334;18.034;2022-09-28T07:53:35;14.60;99.90
9437;DHT22;4757;59.334;18.034;2022-09-28T07:56:04;14.40;99.90
9437;DHT22;4757;59.334;18.034;2022-09-28T07:58:36;14.50;99.90
9437;DHT22;4757;59.334;18.034;2022-09-28T08:01:09;14.60;99.90
9437;DHT22;4757;59.334;18.034;2022-09-28T08:03:37;14.30;99.90
9437;DHT22;4757;59.334;18.034;2022-09-28T08:06:06;14.50;99.90
9437;DHT22;4757;59.334;18.034;2022-09-28T08:08:37;14.40;99.90
9437;DHT22;4757;59.334;18.034;2022-09-28T08:11:06;14.40;99.90
9437;DHT22;4757;59.334;18.034;2022-09-28T08:13:34;14.50;99.90
9437;DHT22;4757;59.334;18.034;2022-09-28T08:16:02;14.40;99.90
9437;DHT22;4757;59.334;18.034;2022-09-28T08:18:30;14.60;99.90
9437;DHT22;4757;59.334;18.034;2022-09-28T08:20:57;14.70;99.90
9437;DHT22;4757;59.334;18.034;2022-09-28T08:23:43;14.70;99.90
9437;DHT22;4757;59.334;18.034;2022-09-28T08:26:10;14.60;99.90
9437;DHT22;4757;59.334;18.034;2022-09-28T08:28:42;14.50;99.90
9437;DHT22;4757;59.334;18.034;2022-09-28T08:31:09;14.60;99.90
9437;DHT22;4757;59.334;18.034;2022-09-28T08:33:36;14.50;99.90
9437;DHT22;4757;59.334;18.034;2022-09-28T08:36:03;14.40;99.90
9437;DHT22;4757;59.334;18.034;2022-09-28T08:38:32;14.30;99.90
9437;DHT22;4757;59.334;18.034;2022-09-28T08:44:11;14.50;99.90
9437;DHT22;4757;59.334;18.034;2022-09-28T08:46:46;14.60;99.90
9437;DHT22;4757;59.334;18.034;2022-09-28T08:52:02;14.70;99.90
9437;DHT22;4757;59.334;18.034;2022-09-28T08:54:53;14.60;99.90
9437;DHT22;4757;59.334;18.034;2022-09-28T08:57:46;14.70;99.90
9437;DHT22;4757;59.334;18.034;2022-09-28T09:01:06;14.70;99.90
9437;DHT22;4757;59.334;18.034;2022-09-28T09:03:37;14.80;99.90
9437;DHT22;4757;59.334;18.034;2022-09-28T09:17:05;14.70;99.90
9437;DHT22;4757;59.334;18.034;2022-09-28T09:20:01;14.60;99.90
9437;DHT22;4757;59.334;18.034;2022-09-28T09:22:38;14.50;99.90
9437;DHT22;4757;59.334;18.034;2022-09-28T09:25:22;14.50;99.90
9437;DHT22;4757;59.334;18.034;2022-09-28T09:31:07;14.10;99.90
9437;DHT22;4757;59.334;18.034;2022-09-28T09:33:57;14.20;99.90
9437;DHT22;4757;59.334;18.034;2022-09-28T09:36:53;14.30;99.90
9437;DHT22;4757;59.334;18.034;2022-09-28T09:40:14;14.10;99.90
9437;DHT22;4757;59.334;18.034;2022-09-28T09:43:02;14.10;99.90
9437;DHT22;4757;59.334;18.034;2022-09-28T09:45:39;14.10;99.90
9437;DHT22;4757;59.334;18.034;2022-09-28T09:51:01;14.30;99.90
9437;DHT22;4757;59.334;18.034;2022-09-28T09:53:51;14.20;99.90
9437;DHT22;4757;59.334;18.034;2022-09-28T09:56:26;14.20;99.90
9437;DHT22;4757;59.334;18.034;2022-09-28T09:59:05;14.20;99.90
9437;DHT22;4757;59.334;18.034;2022-09-28T10:01:38;14.30;99.90
9437;DHT22;4757;59.334;18.034;2022-09-28T10:04:18;14.20;99.90
9437;DHT22;4757;59.334;18.034;2022-09-28T10:06:48;14.20;99.90
9437;DHT22;4757;59.334;18.034;2022-09-28T10:09:23;14.30;99.90
9437;DHT22;4757;59.334;18.034;2022-09-28T10:11:51;14.40;99.90
9437;DHT22;4757;59.334;18.034;2022-09-28T10:14:22;14.40;99.90
9437;DHT22;4757;59.334;18.034;2022-09-28T10:16:54;14.40;99.90
9437;DHT22;4757;59.334;18.034;2022-09-28T10:19:33;14.30;99.90
9437;DHT22;4757;59.334;18.034;2022-09-28T10:22:03;14.40;99.90
9437;DHT22;4757;59.334;18.034;2022-09-28T10:24:34;14.40;99.90
9437;DHT22;4757;59.334;18.034;2022-09-28T10:27:12;14.40;99.90
9437;DHT22;4757;59.334;18.034;2022-09-28T10:29:52;14.30;99.90
9437;DHT22;4757;59.334;18.034;2022-09-28T10:32:26;14.40;99.90
9437;DHT22;4757;59.334;18.034;2022-09-28T10:40:41;14.70;99.90
9437;DHT22;4757;59.334;18.034;2022-09-28T10:43:26;14.80;99.90
9437;DHT22;4757;59.334;18.034;2022-09-28T10:48:29;14.70;99.90
9437;DHT22;4757;59.334;18.034;2022-09-28T10:51:01;14.50;99.90
9437;DHT22;4757;59.334;18.034;2022-09-28T10:53:36;14.20;99.90
9437;DHT22;4757;59.334;18.034;2022-09-28T10:56:06;14.10;99.90
9437;DHT22;4757;59.334;18.034;2022-09-28T10:58:43;14.20;99.90
9437;DHT22;4757;59.334;18.034;2022-09-28T11:01:15;14.10;99.90
9437;DHT22;4757;59.334;18.034;2022-09-28T11:06:30;14.10;99.90
9437;DHT22;4757;59.334;18.034;2022-09-28T11:11:46;14.30;99.90
9437;DHT22;4757;59.334;18.034;2022-09-28T11:14:35;14.30;99.90
9437;DHT22;4757;59.334;18.034;2022-09-28T11:17:33;14.20;99.90
9437;DHT22;4757;59.334;18.034;2022-09-28T11:23:17;14.20;99.90
9437;DHT22;4757;59.334;18.034;2022-09-28T11:26:12;14.20;99.90
9437;DHT22;4757;59.334;18.034;2022-09-28T11:28:49;14.00;99.90
9437;DHT22;4757;59.334;18.034;2022-09-28T11:31:24;14.10;99.90
9437;DHT22;4757;59.334;18.034;2022-09-28T11:34:06;14.20;99.90
9437;DHT22;4757;59.334;18.034;2022-09-28T11:39:47;14.10;99.90
9437;DHT22;4757;59.334;18.034;2022-09-28T11:42:31;14.10;99.90
9437;DHT22;4757;59.334;18.034;2022-09-28T11:45:39;14.20;99.90
9437;DHT22;4757;59.334;18.034;2022-09-28T11:48:22;14.20;99.90
9437;DHT22;4757;59.334;18.034;2022-09-28T11:51:05;14.10;99.90
9437;DHT22;4757;59.334;18.034;2022-09-28T11:53:59;14.10;99.90
9437;DHT22;4757;59.334;18.034;2022-09-28T11:56:40;14.10;99.90
9437;DHT22;4757;59.334;18.034;2022-09-28T12:02:44;14.20;99.90
9437;DHT22;4757;59.334;18.034;2022-09-28T12:08:13;14.20;99.90
9437;DHT22;4757;59.334;18.034;2022-09-28T12:10:58;14.30;99.90
9437;DHT22;4757;59.334;18.034;2022-09-28T12:13:28;14.20;99.90
9437;DHT22;4757;59.334;18.034;2022-09-28T12:15:59;14.10;99.90
9437;DHT22;4757;59.334;18.034;2022-09-28T12:23:55;14.00;99.90
9437;DHT22;4757;59.334;18.034;2022-09-28T12:26:33;14.00;99.90
9437;DHT22;4757;59.334;18.034;2022-09-28T12:29:11;14.00;99.90
9437;DHT22;4757;59.334;18.034;2022-09-28T12:32:35;14.00;99.90
9437;DHT22;4757;59.334;18.034;2022-09-28T12:34:42;13.90;99.90
9437;DHT22;4757;59.334;18.034;2022-09-28T12:37:43;13.90;99.90
9437;DHT22;4757;59.334;18.034;2022-09-28T12:48:56;13.90;99.90
9437;DHT22;4757;59.334;18.034;2022-09-28T12:51:50;13.80;99.90
9437;DHT22;4757;59.334;18.034;2022-09-28T12:54:45;13.80;99.90
9437;DHT22;4757;59.334;18.034;2022-09-28T13:00:06;14.70;99.90
9437;DHT22;4757;59.334;18.034;2022-09-28T13:17:03;15.00;99.90
9437;DHT22;4757;59.334;18.034;2022-09-28T13:25:19;14.30;99.90
9437;DHT22;4757;59.334;18.034;2022-09-28T13:27:52;13.80;99.90
9437;DHT22;4757;59.334;18.034;2022-09-28T13:30:21;13.70;99.90
9437;DHT22;4757;59.334;18.034;2022-09-28T13:32:49;13.60;99.90
9437;DHT22;4757;59.334;18.034;2022-09-28T13:35:17;13.60;99.90
9437;DHT22;4757;59.334;18.034;2022-09-28T13:46:45;13.80;99.90
9437;DHT22;4757;59.334;18.034;2022-09-28T13:49:41;13.60;99.90
9437;DHT22;4757;59.334;18.034;2022-09-28T13:55:02;13.40;99.90
9437;DHT22;4757;59.334;18.034;2022-09-28T14:05:45;13.50;99.90
9437;DHT22;4757;59.334;18.034;2022-09-28T14:08:26;13.40;99.90
9437;DHT22;4757;59.334;18.034;2022-09-28T14:10:56;13.40;99.90
9437;DHT22;4757;59.334;18.034;2022-09-28T14:18:59;13.40;99.90
9437;DHT22;4757;59.334;18.034;2022-09-28T14:21:49;13.50;99.90
9437;DHT22;4757;59.334;18.034;2022-09-28T14:32:43;13.20;99.90
9437;DHT22;4757;59.334;18.034;2022-09-28T14:35:32;13.10;99.90
9437;DHT22;4757;59.334;18.034;2022-09-28T14:38:18;13.20;99.90
9437;DHT22;4757;59.334;18.034;2022-09-28T14:41:27;13.20;99.90
9437;DHT22;4757;59.334;18.034;2022-09-28T14:46:32;13.20;99.90
9437;DHT22;4757;59.334;18.034;2022-09-28T14:57:17;13.00;99.90
9437;DHT22;4757;59.334;18.034;2022-09-28T14:59:45;13.10;99.90
9437;DHT22;4757;59.334;18.034;2022-09-28T15:02:22;13.00;99.90
9437;DHT22;4757;59.334;18.034;2022-09-28T15:09:51;12.90;99.90
9437;DHT22;4757;59.334;18.034;2022-09-28T15:12:29;13.00;99.90
9437;DHT22;4757;59.334;18.034;2022-09-28T15:15:05;12.90;99.90
9437;DHT22;4757;59.334;18.034;2022-09-28T15:17:36;12.70;99.90
9437;DHT22;4757;59.334;18.034;2022-09-28T15:20:25;12.80;99.90
9437;DHT22;4757;59.334;18.034;2022-09-28T15:22:57;12.90;99.90
9437;DHT22;4757;59.334;18.034;2022-09-28T15:25:27;12.80;99.90
9437;DHT22;4757;59.334;18.034;2022-09-28T15:27:59;12.70;99.90
9437;DHT22;4757;59.334;18.034;2022-09-28T15:30:33;12.80;99.90
9437;DHT22;4757;59.334;18.034;2022-09-28T15:33:01;12.80;99.90
9437;DHT22;4757;59.334;18.034;2022-09-28T15:35:58;12.80;99.90
9437;DHT22;4757;59.334;18.034;2022-09-28T15:38:27;12.80;99.90
9437;DHT22;4757;59.334;18.034;2022-09-28T15:40:55;12.80;99.90
9437;DHT22;4757;59.334;18.034;2022-09-28T15:43:28;12.80;99.90
9437;DHT22;4757;59.334;18.034;2022-09-28T15:48:39;12.70;99.90
9437;DHT22;4757;59.334;18.034;2022-09-28T15:51:11;12.60;99.90
9437;DHT22;4757;59.334;18.034;2022-09-28T15:54:03;12.70;99.90
9437;DHT22;4757;59.334;18.034;2022-09-28T15:57:09;12.50;99.90
9437;DHT22;4757;59.334;18.034;2022-09-28T15:59:53;12.60;99.90
9437;DHT22;4757;59.334;18.034;2022-09-28T16:02:25;12.30;99.90
9437;DHT22;4757;59.334;18.034;2022-09-28T16:04:55;12.30;99.90
9437;DHT22;4757;59.334;18.034;2022-09-28T16:07:28;12.30;99.90
9437;DHT22;4757;59.334;18.034;2022-09-28T16:15:27;12.40;99.90
9437;DHT22;4757;59.334;18.034;2022-09-28T16:18:04;12.40;99.90
9437;DHT22;4757;59.334;18.034;2022-09-28T16:20:39;12.30;99.90
9437;DHT22;4757;59.334;18.034;2022-09-28T16:31:21;12.20;99.90
9437;DHT22;4757;59.334;18.034;2022-09-28T16:34:14;12.20;99.90
9437;DHT22;4757;59.334;18.034;2022-09-28T16:36:46;12.20;99.90
9437;DHT22;4757;59.334;18.034;2022-09-28T16:39:15;12.10;99.90
9437;DHT22;4757;59.334;18.034;2022-09-28T16:41:51;12.20;99.90
9437;DHT22;4757;59.334;18.034;2022-09-28T16:44:26;12.00;99.90
9437;DHT22;4757;59.334;18.034;2022-09-28T16:46:56;12.10;99.90
9437;DHT22;4757;59.334;18.034;2022-09-28T16:49:24;12.00;99.90
9437;DHT22;4757;59.334;18.034;2022-09-28T16:51:52;12.00;99.90
9437;DHT22;4757;59.334;18.034;2022-09-28T16:54:22;12.10;99.90
9437;DHT22;4757;59.334;18.034;2022-09-28T16:57:11;12.20;99.90
9437;DHT22;4757;59.334;18.034;2022-09-28T16:59:39;12.10;99.90
9437;DHT22;4757;59.334;18.034;2022-09-28T17:02:17;12.20;99.90
9437;DHT22;4757;59.334;18.034;2022-09-28T17:05:05;12.10;99.90
9437;DHT22;4757;59.334;18.034;2022-09-28T17:07:32;12.20;99.90
9437;DHT22;4757;59.334;18.034;2022-09-28T17:10:00;12.20;99.90
9437;DHT22;4757;59.334;18.034;2022-09-28T17:12:27;12.10;99.90
9437;DHT22;4757;59.334;18.034;2022-09-28T17:14:54;12.10;99.90
9437;DHT22;4757;59.334;18.034;2022-09-28T17:17:21;12.10;99.90
9437;DHT22;4757;59.334;18.034;2022-09-28T17:19:48;12.10;99.90
9437;DHT22;4757;59.334;18.034;2022-09-28T17:22:15;12.00;99.90
9437;DHT22;4757;59.334;18.034;2022-09-28T17:24:44;12.00;99.90
9437;DHT22;4757;59.334;18.034;2022-09-28T17:27:15;12.00;99.90
9437;DHT22;4757;59.334;18.034;2022-09-28T17:29:44;12.00;99.90
9437;DHT22;4757;59.334;18.034;2022-09-28T17:32:16;11.70;99.90
9437;DHT22;4757;59.334;18.034;2022-09-28T17:34:43;11.50;99.90
9437;DHT22;4757;59.334;18.034;2022-09-28T17:37:21;11.40;99.90
9437;DHT22;4757;59.334;18.034;2022-09-28T17:39:48;11.40;99.90
9437;DHT22;4757;59.334;18.034;2022-09-28T17:42:18;11.20;99.90
9437;DHT22;4757;59.334;18.034;2022-09-28T17:44:44;11.20;99.90
9437;DHT22;4757;59.334;18.034;2022-09-28T17:47:12;11.10;99.90
9437;DHT22;4757;59.334;18.034;2022-09-28T17:49:39;11.10;99.90
9437;DHT22;4757;59.334;18.034;2022-09-28T17:52:06;11.00;99.90
9437;DHT22;4757;59.334;18.034;2022-09-28T17:54:33;11.00;99.90
9437;DHT22;4757;59.334;18.034;2022-09-28T17:57:03;11.00;99.90
9437;DHT22;4757;59.334;18.034;2022-09-28T17:59:30;11.00;99.90
9437;DHT22;4757;59.334;18.034;2022-09-28T18:01:57;11.00;99.90
9437;DHT22;4757;59.334;18.034;2022-09-28T18:04:28;11.00;99.90
9437;DHT22;4757;59.334;18.034;2022-09-28T18:07:15;11.00;99.90
9437;DHT22;4757;59.334;18.034;2022-09-28T18:09:43;11.00;99.90
9437;DHT22;4757;59.334;18.034;2022-09-28T18:12:10;10.90;99.90
9437;DHT22;4757;59.334;18.034;2022-09-28T18:14:37;10.90;99.90
9437;DHT22;4757;59.334;18.034;2022-09-28T18:17:05;10.90;99.90
9437;DHT22;4757;59.334;18.034;2022-09-28T18:19:32;11.00;99.90
9437;DHT22;4757;59.334;18.034;2022-09-28T18:21:59;10.90;99.90
9437;DHT22;4757;59.334;18.034;2022-09-28T18:24:27;10.80;99.90
9437;DHT22;4757;59.334;18.034;2022-09-28T18:26:54;10.90;99.90
9437;DHT22;4757;59.334;18.034;2022-09-28T18:29:21;10.90;99.90
9437;DHT22;4757;59.334;18.034;2022-09-28T18:31:48;10.90;99.90
9437;DHT22;4757;59.334;18.034;2022-09-28T18:34:15;10.70;99.90
9437;DHT22;4757;59.334;18.034;2022-09-28T18:36:42;10.70;99.90
9437;DHT22;4757;59.334;18.034;2022-09-28T18:39:10;10.70;99.90
9437;DHT22;4757;59.334;18.034;2022-09-28T18:41:37;10.70;99.90
9437;DHT22;4757;59.334;18.034;2022-09-28T18:44:04;10.70;99.90
9437;DHT22;4757;59.334;18.034;2022-09-28T18:46:31;10.80;99.90
9437;DHT22;4757;59.334;18.034;2022-09-28T18:49:05;10.90;99.90
9437;DHT22;4757;59.334;18.034;2022-09-28T18:51:36;11.00;99.90
9437;DHT22;4757;59.334;18.034;2022-09-28T18:54:03;11.10;99.90
9437;DHT22;4757;59.334;18.034;2022-09-28T18:56:39;11.20;99.90
9437;DHT22;4757;59.334;18.034;2022-09-28T18:59:07;11.20;99.90
9437;DHT22;4757;59.334;18.034;2022-09-28T19:01:38;11.30;99.90
9437;DHT22;4757;59.334;18.034;2022-09-28T19:04:08;11.30;99.90
9437;DHT22;4757;59.334;18.034;2022-09-28T19:06:40;11.50;99.90
9437;DHT22;4757;59.334;18.034;2022-09-28T19:09:08;11.50;99.90
9437;DHT22;4757;59.334;18.034;2022-09-28T19:11:38;11.40;99.90
9437;DHT22;4757;59.334;18.034;2022-09-28T19:14:06;11.40;99.90
9437;DHT22;4757;59.334;18.034;2022-09-28T19:16:36;11.50;99.90
9437;DHT22;4757;59.334;18.034;2022-09-28T19:19:03;11.50;99.90
9437;DHT22;4757;59.334;18.034;2022-09-28T19:21:32;11.50;99.90
9437;DHT22;4757;59.334;18.034;2022-09-28T19:24:00;11.40;99.90
9437;DHT22;4757;59.334;18.034;2022-09-28T19:26:27;11.50;99.90
9437;DHT22;4757;59.334;18.034;2022-09-28T19:28:56;11.50;99.90
9437;DHT22;4757;59.334;18.034;2022-09-28T19:31:24;11.50;99.90
9437;DHT22;4757;59.334;18.034;2022-09-28T19:33:52;11.50;99.90